createdAt,value
2024-02-22T00:00:04.017Z,99543.78
2024-02-22T00:09:56.215Z,99532.34
2024-02-22T00:19:38.478Z,99527.06
2024-02-22T00:29:20.505Z,99483.91
2024-02-22T00:39:04.926Z,99505.75
2024-02-22T00:48:47.037Z,99491.13
2024-02-22T00:58:29.101Z,99480.78
2024-02-22T01:08:14.300Z,99453.84
2024-02-22T01:17:57.159Z,99369.00
2024-02-22T01:27:40.259Z,99418.13
2024-02-22T01:37:22.258Z,99399.28
2024-02-22T01:47:05.415Z,99377.31
2024-02-22T01:56:49.098Z,99367.41
2024-02-22T02:06:31.123Z,99318.47
2024-02-22T02:16:16.556Z,99338.09
2024-02-22T02:26:05.160Z,99283.16
2024-02-22T02:35:47.976Z,99315.59
2024-02-22T02:45:34.835Z,99303.75
2024-02-22T02:55:17.065Z,99244.50
2024-02-22T03:04:59.280Z,99274.09
2024-02-22T03:14:42.652Z,99220.91
2024-02-22T03:24:28.106Z,99211.97
2024-02-22T03:34:10.057Z,99228.38
2024-02-22T03:43:52.828Z,99231.31
2024-02-22T03:53:36.557Z,99224.97
2024-02-22T04:03:18.717Z,99223.19
2024-02-22T04:13:00.872Z,99192.69
2024-02-22T04:22:50.630Z,99173.75
2024-02-22T04:32:32.968Z,99181.66
2024-02-22T04:42:16.137Z,99161.66
2024-02-22T04:52:00.027Z,99164.78
2024-02-22T05:01:43.296Z,99154.22
2024-02-22T05:11:27.290Z,99111.13
2024-02-22T05:21:09.894Z,99131.94
2024-02-22T05:30:55.604Z,99105.06
2024-02-22T05:40:40.259Z,99081.59
2024-02-22T05:50:24.710Z,99050.50
2024-02-22T06:00:09.167Z,99087.94
2024-02-22T06:09:55.149Z,99024.50
2024-02-22T06:19:37.156Z,99030.06
2024-02-22T06:29:19.132Z,99029.53
2024-02-22T06:39:01.051Z,99032.69
2024-02-22T06:48:43.309Z,99019.00
2024-02-22T06:58:26.275Z,98977.88
2024-02-22T07:08:08.850Z,98980.00
2024-02-22T07:17:51.373Z,98943.94
2024-02-22T07:27:34.316Z,98966.22
2024-02-22T07:37:16.978Z,98902.13
2024-02-22T07:46:59.012Z,98914.31
2024-02-22T07:56:41.930Z,98928.81
2024-02-22T08:06:23.924Z,98907.47
2024-02-22T08:16:07.984Z,98888.41
2024-02-22T08:25:53.294Z,98877.47
2024-02-22T08:35:36.120Z,98842.25
2024-02-22T08:45:19.206Z,98653.72
2024-02-22T08:55:01.881Z,98801.38
2024-02-22T09:04:44.587Z,98780.72
2024-02-22T09:14:26.936Z,98667.56
2024-02-22T09:24:10.568Z,98681.75
2024-02-22T09:33:53.261Z,98724.13
2024-02-22T09:43:37.224Z,98702.03
2024-02-22T09:53:22.773Z,98684.56
2024-02-22T10:03:05.122Z,98646.19
2024-02-22T10:12:51.450Z,98626.19
2024-02-22T10:22:37.243Z,98595.81
2024-02-22T10:32:20.527Z,98564.25
2024-02-22T10:42:05.345Z,98544.47
2024-02-22T10:51:49.844Z,98517.50
2024-02-22T11:01:34.467Z,98479.41
2024-02-22T11:11:31.194Z,98468.38
2024-02-22T11:21:14.357Z,98405.06
2024-02-22T11:31:00.298Z,98412.94
2024-02-22T11:40:43.491Z,98349.53
2024-02-22T11:50:28.346Z,98340.16
2024-02-22T12:00:11.385Z,98330.66
2024-02-22T12:09:56.771Z,98296.63
2024-02-22T12:19:39.426Z,98274.00
2024-02-22T12:29:23.045Z,98207.28
2024-02-22T12:39:06.732Z,98201.66
2024-02-22T12:48:49.493Z,98182.03
2024-02-22T12:58:31.583Z,98153.78
2024-02-22T13:08:19.992Z,98097.34
2024-02-22T13:18:08.273Z,98061.28
2024-02-22T13:27:50.764Z,98037.75
2024-02-22T13:37:39.465Z,98037.56
2024-02-22T13:47:21.647Z,98020.44
2024-02-22T13:57:05.535Z,98004.28
2024-02-22T14:06:49.965Z,97989.97
2024-02-22T14:16:32.754Z,97953.22
2024-02-22T14:26:14.670Z,97909.03
2024-02-22T14:35:58.417Z,97874.69
2024-02-22T14:45:41.078Z,97841.19
2024-02-22T14:55:23.888Z,97810.88
2024-02-22T15:05:06.768Z,97807.00
2024-02-22T15:14:48.953Z,97758.69
2024-02-22T15:24:34.114Z,97695.59
2024-02-22T15:34:16.551Z,97747.03
2024-02-22T15:43:58.681Z,97740.03
2024-02-22T15:53:41.492Z,97671.06
2024-02-22T16:03:42.755Z,97624.94
2024-02-22T16:13:29.339Z,97499.03
2024-02-22T16:23:21.140Z,97606.09
2024-02-22T16:33:11.432Z,97601.91
2024-02-22T16:42:53.525Z,97615.59
2024-02-22T16:52:37.394Z,97606.88
2024-02-22T17:02:21.657Z,97601.94
2024-02-22T17:12:04.461Z,97582.56
2024-02-22T17:21:51.425Z,97560.31
2024-02-22T17:31:33.862Z,97539.53
2024-02-22T17:41:19.656Z,97521.50
2024-02-22T17:51:01.721Z,97418.94
2024-02-22T18:00:46.603Z,97469.97
2024-02-22T18:10:34.457Z,97499.63
2024-02-22T18:20:21.517Z,97508.19
2024-02-22T18:30:04.443Z,97502.91
2024-02-22T18:39:46.418Z,97499.16
2024-02-22T18:49:30.085Z,97495.44
2024-02-22T18:59:12.998Z,97485.50
2024-02-22T19:08:58.273Z,97665.00
2024-02-22T19:18:41.204Z,97643.56
2024-02-22T19:28:24.506Z,97646.28
2024-02-22T19:38:15.333Z,97686.06
2024-02-22T19:47:58.137Z,97695.41
2024-02-22T19:57:40.314Z,97725.63
2024-02-22T20:07:24.509Z,97691.41
2024-02-22T20:17:06.589Z,97768.91
2024-02-22T20:26:48.658Z,97790.00
2024-02-22T20:36:31.922Z,97817.50
2024-02-22T20:46:14.447Z,97829.34
2024-02-22T20:55:57.442Z,97877.66
2024-02-22T21:05:39.644Z,97942.56
2024-02-22T21:15:23.742Z,97877.72
2024-02-22T21:25:06.685Z,97970.22
2024-02-22T21:34:48.926Z,98024.06
2024-02-22T21:44:32.683Z,97982.50
2024-02-22T21:54:15.309Z,98023.22
2024-02-22T22:03:57.928Z,98063.09
2024-02-22T22:13:44.893Z,98093.22
2024-02-22T22:23:28.474Z,98119.63
2024-02-22T22:33:12.258Z,98131.16
2024-02-22T22:42:57.436Z,98196.09
2024-02-22T22:52:40.445Z,98216.78
2024-02-22T23:02:22.627Z,98268.13
2024-02-22T23:12:05.323Z,98284.84
2024-02-22T23:21:47.474Z,98316.47
2024-02-22T23:31:30.203Z,98347.84
2024-02-22T23:41:22.465Z,98380.47
2024-02-22T23:51:11.972Z,98382.06
